Phoenix Sky Harbor International Airport
KPHX : now visible

Airfield :











YOU CAN JOIN US ON...

 
LOGIN :

Register | Disclaimer

   EN    FR    IT 

 









Legend :    VFR   Marginal VFR   IFR   Intensive IFR   Very Intensive IFR
Visi :
Ceiling :
>= 8 km
>= 3000ft
5 to 8 km
1000 to 3000 ft
1500m to 5 km
500 to 1000 ft
800 to 1500m
200 to 500 ft
< 800m
< 200 ft
Symbols :   Thunderstorms  Fog  Heavy snow  Heavy precipitations  Wind > 20 kt






- Airport Elevation : 1135 ft
- IATA code : PHX


KPHX - Phoenix Sky Harbor International

CURRENT METAR :
  • 201451Z 13008KT 10SM FEW120 BKN190 BKN270 24/M01 A2984 RMK AO2 SLP087 VIRGA E T02441011 51015

EXPIRED METARs :
  • 201351Z 10006KT 10SM FEW140 BKN230 24/M02 A2983 RMK AO2 SLP083 T02441017
  • 201251Z 10007KT 10SM FEW140 BKN230 23/M02 A2981 RMK AO2 SLP077 T02331017
  • 201151Z 09006KT 10SM FEW140 SCT240 23/M01 A2980 RMK AO2 SLP070 T02331011 10317 20228 53008
  • 201051Z 09008KT 10SM FEW130 FEW150 25/M01 A2978 RMK AO2 SLP066 T02501011

TAF KPHX
Valid from the 20 at 15:00 until the 21 at 18:00 UTC


201510Z 2015/2118 14007KT P6SM SCT250
FM201700 24009KT P6SM SCT150 BKN200
FM201900 25014G25KT P6SM SCT120 BKN160
TEMPO 2021/2023 24025G38KT
FM210300 26009KT P6SM SKC
FM211000 10006KT P6SM SKC
KZAB FIR / North America



MET'MAP, your aeronautical weather chart ! - Copyright ORBIFLY December 2007 - Disclaimer

ORBIFLY MET'MAP TEAM :

Programming & Development : Alexandra Zaïnal
Original concept : Baudouin d'Aumeries
Technical & hardware support : Manuel Goepfert
Assistance : Marc-Olivier Méhu




SOURCES & CREDITS :

   NOAA       Earth
Advisory